Time,TemperatureF,DewpointF,PressureIn,WindDirection,WindDirectionDegrees,WindSpeedMPH,WindSpeedGustMPH,Humidity,HourlyPrecipIn,Conditions,Clouds,dailyrainin,SoftwareType,DateUTC
2014-08-30 00:00:00,81.0,76.4,30.10,North,0,1.1,1.1,86,0.00,,,0.00,WUHU216HW,2014-08-30 04:00:00,
2014-08-30 00:01:00,81.0,76.4,30.10,North,0,1.1,1.1,86,0.00,,,0.00,WUHU216HW,2014-08-30 04:01:00,
2014-08-30 00:02:00,81.0,76.4,30.10,North,0,1.1,1.1,86,0.00,,,0.00,WUHU216HW,2014-08-30 04:02:00,
2014-08-30 00:07:00,81.0,76.4,30.10,North,0,1.1,1.1,86,0.00,,,0.00,WUHU216HW,2014-08-30 04:07:00,
2014-08-30 00:30:00,81.2,76.6,30.09,North,0,5.4,5.4,86,0.00,,,0.00,WUHU216HW,2014-08-30 04:30:00,
2014-08-30 00:35:00,81.2,76.6,30.09,North,0,5.4,5.4,86,0.00,,,0.00,WUHU216HW,2014-08-30 04:35:00,
2014-08-30 01:00:00,81.4,76.4,30.09,NE,45,3.8,3.8,85,0.00,,,0.00,WUHU216HW,2014-08-30 05:00:00,
2014-08-30 01:05:00,81.4,76.4,30.09,NE,45,3.8,3.8,85,0.00,,,0.00,WUHU216HW,2014-08-30 05:05:00,
2014-08-30 01:30:00,81.0,75.7,30.07,NE,45,0.0,0.0,84,0.00,,,0.00,WUHU216HW,2014-08-30 05:30:00,
2014-08-30 01:35:00,81.0,75.7,30.07,NE,45,0.0,0.0,84,0.00,,,0.00,WUHU216HW,2014-08-30 05:35:00,
2014-08-30 02:00:00,80.3,75.0,30.07,North,0,0.0,0.0,84,0.00,,,0.00,WUHU216HW,2014-08-30 06:00:00,
2014-08-30 02:05:00,80.3,75.0,30.07,North,0,0.0,0.0,84,0.00,,,0.00,WUHU216HW,2014-08-30 06:05:00,
2014-08-30 02:30:00,79.9,75.7,30.07,East,90,1.3,1.3,87,0.00,,,0.00,WUHU216HW,2014-08-30 06:30:00,
2014-08-30 02:35:00,79.9,75.7,30.07,East,90,1.3,1.3,87,0.00,,,0.00,WUHU216HW,2014-08-30 06:35:00,
2014-08-30 03:00:00,80.3,74.7,30.05,ENE,68,2.0,2.0,83,0.00,,,0.00,WUHU216HW,2014-08-30 07:00:00,
2014-08-30 03:05:00,80.3,74.7,30.05,ENE,68,2.0,2.0,83,0.00,,,0.00,WUHU216HW,2014-08-30 07:05:00,
2014-08-30 03:30:00,80.6,76.1,30.04,East,90,4.0,4.0,86,0.00,,,0.00,WUHU216HW,2014-08-30 07:30:00,
2014-08-30 03:35:00,80.6,76.1,30.04,East,90,4.0,4.0,86,0.00,,,0.00,WUHU216HW,2014-08-30 07:35:00,
2014-08-30 04:00:00,80.1,75.2,30.03,South,180,0.4,0.4,85,0.00,,,0.00,WUHU216HW,2014-08-30 08:00:00,
2014-08-30 04:05:00,80.1,75.2,30.03,South,180,0.4,0.4,85,0.00,,,0.00,WUHU216HW,2014-08-30 08:05:00,
2014-08-30 04:30:00,79.6,74.7,30.04,ESE,113,0.0,0.0,85,0.00,,,0.00,WUHU216HW,2014-08-30 08:30:00,
2014-08-30 04:35:00,79.6,74.7,30.04,ESE,113,0.0,0.0,85,0.00,,,0.00,WUHU216HW,2014-08-30 08:35:00,
2014-08-30 05:00:00,79.2,74.4,30.05,East,90,0.0,0.0,85,0.00,,,0.00,WUHU216HW,2014-08-30 09:00:00,
2014-08-30 05:05:00,79.2,74.4,30.05,East,90,0.0,0.0,85,0.00,,,0.00,WUHU216HW,2014-08-30 09:05:00,
2014-08-30 05:30:00,79.6,75.1,30.06,NNE,23,0.0,0.0,86,0.00,,,0.00,WUHU216HW,2014-08-30 09:30:00,
2014-08-30 05:35:00,79.6,75.1,30.06,NNE,23,0.0,0.0,86,0.00,,,0.00,WUHU216HW,2014-08-30 09:35:00,
2014-08-30 06:00:00,79.2,74.7,30.07,NNW,338,0.0,0.0,86,0.00,,,0.00,WUHU216HW,2014-08-30 10:00:00,
2014-08-30 06:05:00,79.2,74.7,30.07,NNW,338,0.0,0.0,86,0.00,,,0.00,WUHU216HW,2014-08-30 10:05:00,
2014-08-30 06:30:00,79.4,75.9,30.08,East,90,5.6,5.6,89,0.00,,,0.00,WUHU216HW,2014-08-30 10:30:00,
2014-08-30 06:35:00,79.4,75.9,30.08,East,90,5.6,5.6,89,0.00,,,0.00,WUHU216HW,2014-08-30 10:35:00,
2014-08-30 07:00:00,80.8,76.6,30.07,ESE,113,2.2,2.2,87,0.00,,,0.00,WUHU216HW,2014-08-30 11:00:00,
2014-08-30 07:05:00,80.8,76.6,30.07,ESE,113,2.2,2.2,87,0.00,,,0.00,WUHU216HW,2014-08-30 11:05:00,
2014-08-30 07:30:00,81.2,77.6,30.08,ENE,68,1.1,1.1,89,0.00,,,0.00,WUHU216HW,2014-08-30 11:30:00,
2014-08-30 07:35:00,81.2,77.6,30.08,ENE,68,1.1,1.1,89,0.00,,,0.00,WUHU216HW,2014-08-30 11:35:00,
2014-08-30 08:00:00,82.1,78.1,30.10,ENE,68,1.6,1.6,88,0.00,,,0.00,WUHU216HW,2014-08-30 12:00:00,
2014-08-30 08:05:00,82.1,78.1,30.10,ENE,68,1.6,1.6,88,0.00,,,0.00,WUHU216HW,2014-08-30 12:05:00,
2014-08-30 08:30:00,83.5,78.5,30.09,East,90,0.4,0.4,85,0.00,,,0.00,WUHU216HW,2014-08-30 12:30:00,
2014-08-30 08:35:00,83.5,78.5,30.09,East,90,0.4,0.4,85,0.00,,,0.00,WUHU216HW,2014-08-30 12:35:00,
2014-08-30 09:00:00,83.9,78.5,30.09,ESE,113,1.8,1.8,84,0.00,,,0.00,WUHU216HW,2014-08-30 13:00:00,
2014-08-30 09:05:00,83.9,78.5,30.09,ESE,113,1.8,1.8,84,0.00,,,0.00,WUHU216HW,2014-08-30 13:05:00,
2014-08-30 09:30:00,85.7,79.2,30.09,SSE,158,2.2,2.2,81,0.00,,,0.00,WUHU216HW,2014-08-30 13:30:00,
2014-08-30 09:35:00,85.7,79.2,30.09,SSE,158,2.2,2.2,81,0.00,,,0.00,WUHU216HW,2014-08-30 13:35:00,
2014-08-30 10:00:00,86.2,79.4,30.09,ESE,113,3.1,3.1,80,0.00,,,0.00,WUHU216HW,2014-08-30 14:00:00,
2014-08-30 10:05:00,86.2,79.4,30.09,ESE,113,3.1,3.1,80,0.00,,,0.00,WUHU216HW,2014-08-30 14:05:00,
2014-08-30 10:30:00,86.6,78.9,30.09,ESE,113,2.5,2.5,78,0.00,,,0.00,WUHU216HW,2014-08-30 14:30:00,
2014-08-30 10:35:00,86.6,78.9,30.09,ESE,113,2.5,2.5,78,0.00,,,0.00,WUHU216HW,2014-08-30 14:35:00,
2014-08-30 11:00:00,86.6,79.4,30.10,SSE,158,4.0,4.0,79,0.00,,,0.00,WUHU216HW,2014-08-30 15:00:00,
2014-08-30 11:05:00,86.6,79.4,30.10,SSE,158,4.0,4.0,79,0.00,,,0.00,WUHU216HW,2014-08-30 15:05:00,
2014-08-30 11:30:00,87.8,78.1,30.10,SE,135,4.0,4.0,73,0.00,,,0.00,WUHU216HW,2014-08-30 15:30:00,
2014-08-30 11:35:00,87.8,78.1,30.10,SE,135,4.0,4.0,73,0.00,,,0.00,WUHU216HW,2014-08-30 15:35:00,